Time;durP1;ratioP1;P1;durP2;ratioP2;P2;SDS_P1;SDS_P2;PMS_P1;PMS_P2;Temp;Humidity;BMP_temperature;BMP_pressure;BME280_temperature;BME280_humidity;BME280_pressure;Samples;Min_cycle;Max_cycle;Signal;HPM_P1;HPM_P2
2023/08/07 00:02:24;;;;;;;1999.90;999.90;;;;;;;13.09;100.00;94923.72;5025888;28;20238;-59
2023/08/07 00:04:50;;;;;;;1999.90;999.90;;;;;;;13.10;100.00;94928.00;5025611;28;20204;-59
2023/08/07 00:07:15;;;;;;;1999.90;999.90;;;;;;;13.13;100.00;94935.38;5025171;28;20194;-59
2023/08/07 00:09:41;;;;;;;1999.90;999.90;;;;;;;13.13;100.00;94918.94;5025927;28;20199;-59
2023/08/07 00:12:06;;;;;;;1999.90;999.90;;;;;;;13.06;100.00;94930.06;5025712;28;20228;-59
2023/08/07 00:14:32;;;;;;;1999.90;999.90;;;;;;;13.05;100.00;94925.78;5025635;28;20198;-58
2023/08/07 00:16:57;;;;;;;1999.90;999.90;;;;;;;12.99;100.00;94924.75;5025179;28;20202;-58
2023/08/07 00:19:23;;;;;;;1999.90;999.90;;;;;;;12.98;100.00;94931.44;5025060;28;20207;-59
2023/08/07 00:21:48;;;;;;;1999.90;999.90;;;;;;;12.93;100.00;94934.69;5025037;28;20275;-59
2023/08/07 00:24:13;;;;;;;1999.90;999.90;;;;;;;12.88;100.00;94925.00;5025289;28;20198;-58
2023/08/07 00:26:39;;;;;;;1999.90;999.90;;;;;;;12.82;100.00;94931.44;5025161;28;20235;-59
2023/08/07 00:29:04;;;;;;;1999.90;999.90;;;;;;;12.79;100.00;94924.81;5024875;28;20228;-58
2023/08/07 00:31:31;;;;;;;1999.90;999.90;;;;;;;12.81;100.00;94930.66;5024859;28;20209;-58
2023/08/07 00:34:00;;;;;;;1999.90;999.90;;;;;;;12.78;100.00;94925.25;5025029;28;20229;-58
2023/08/07 00:36:28;;;;;;;1999.90;999.90;;;;;;;12.76;100.00;94927.66;5024950;28;20195;-58
2023/08/07 00:38:53;;;;;;;1999.90;999.90;;;;;;;12.75;100.00;94932.34;5025250;28;20179;-59
2023/08/07 00:41:19;;;;;;;1999.90;999.90;;;;;;;12.69;100.00;94933.31;5025300;28;20208;-58
2023/08/07 00:43:44;;;;;;;1999.90;999.90;;;;;;;12.69;100.00;94922.34;5025015;28;20206;-58
2023/08/07 00:46:10;;;;;;;1999.90;999.90;;;;;;;12.65;100.00;94927.91;5024940;28;20232;-58
2023/08/07 00:48:35;;;;;;;1999.90;999.90;;;;;;;12.55;100.00;94917.19;5024972;28;20214;-58
2023/08/07 00:51:02;;;;;;;1999.90;999.90;;;;;;;12.46;100.00;94920.53;5024662;28;20225;-58
2023/08/07 00:53:27;;;;;;;1999.90;999.90;;;;;;;12.43;100.00;94904.19;5024463;28;20202;-58
2023/08/07 00:55:52;;;;;;;1999.90;999.90;;;;;;;12.30;100.00;94886.88;5024641;28;20205;-58
2023/08/07 00:58:18;;;;;;;1999.90;999.90;;;;;;;12.12;100.00;94873.59;5025241;28;20213;-58
2023/08/07 01:00:44;;;;;;;1999.90;999.90;;;;;;;12.02;100.00;94836.28;5024935;28;20202;-58
2023/08/07 01:03:12;;;;;;;1999.90;999.90;;;;;;;11.97;100.00;94819.59;5024557;28;20199;-58
2023/08/07 01:05:37;;;;;;;1999.90;999.90;;;;;;;11.81;100.00;94764.88;5024558;28;20231;-58
2023/08/07 01:08:03;;;;;;;1999.90;999.90;;;;;;;11.73;100.00;94730.69;5024180;28;20201;-59
2023/08/07 01:10:54;;;;;;;1999.90;999.90;;;;;;;11.69;100.00;94688.97;5024761;28;20221;-59
2023/08/07 01:13:38;;;;;;;1999.90;999.90;;;;;;;11.57;100.00;94618.50;5024661;28;20280;-59
2023/08/07 01:16:12;;;;;;;1999.90;999.90;;;;;;;11.41;100.00;94572.06;5024453;28;20222;-58
2023/08/07 01:18:38;;;;;;;1999.90;999.90;;;;;;;11.36;100.00;94496.03;5024350;28;20204;-59
2023/08/07 01:21:04;;;;;;;1999.90;999.90;;;;;;;11.25;100.00;94466.22;5024473;28;20205;-59
2023/08/07 01:23:29;;;;;;;1999.90;999.90;;;;;;;11.24;100.00;94420.97;5024403;28;20332;-59
2023/08/07 01:25:54;;;;;;;1999.90;999.90;;;;;;;11.21;100.00;94363.66;5024032;28;20251;-63
2023/08/07 01:29:04;;;;;;;1999.90;999.90;;;;;;;11.14;100.00;94284.66;5024008;28;20207;-60
2023/08/07 01:31:33;;;;;;;1999.90;999.90;;;;;;;11.03;100.00;94221.34;5015129;28;20212;-60
2023/08/07 01:34:04;;;;;;;1999.90;999.90;;;;;;;11.04;100.00;94165.50;5023966;28;20248;-60
2023/08/07 01:36:30;;;;;;;1999.90;999.90;;;;;;;10.95;100.00;94095.13;5024060;28;20195;-60
2023/08/07 01:39:01;;;;;;;1999.90;999.90;;;;;;;10.99;100.00;94046.63;5024138;28;20211;-59
2023/08/07 01:41:27;;;;;;;1999.90;999.90;;;;;;;10.95;100.00;94004.22;5024350;28;20203;-60
2023/08/07 01:43:53;;;;;;;1999.90;999.90;;;;;;;10.92;100.00;93969.63;5025636;28;20206;-60
2023/08/07 01:46:19;;;;;;;1999.90;999.90;;;;;;;10.88;100.00;93952.56;5027772;28;20204;-59
2023/08/07 01:48:44;;;;;;;1999.90;999.90;;;;;;;10.90;100.00;93925.59;5028662;28;20204;-60
2023/08/07 01:51:09;;;;;;;1999.90;999.90;;;;;;;10.85;100.00;93913.25;5028589;28;20271;-60
2023/08/07 01:53:35;;;;;;;1999.90;999.90;;;;;;;10.76;100.00;93904.97;5028189;28;20200;-59
2023/08/07 01:56:00;;;;;;;1999.90;999.90;;;;;;;10.79;100.00;93876.03;5027969;28;20201;-59
2023/08/07 01:58:26;;;;;;;1999.90;999.90;;;;;;;10.83;100.00;93863.00;5027669;28;20267;-60
2023/08/07 02:00:51;;;;;;;1999.90;999.90;;;;;;;10.74;100.00;93849.28;5027671;28;20277;-60
2023/08/07 02:03:17;;;;;;;1999.90;999.90;;;;;;;10.77;100.00;93845.66;5028154;28;20196;-60
2023/08/07 02:05:45;;;;;;;1999.90;999.90;;;;;;;10.74;100.00;93830.19;5027550;28;20219;-60
2023/08/07 02:08:10;;;;;;;1999.90;999.90;;;;;;;10.69;100.00;93814.34;5027579;28;20206;-60
2023/08/07 02:10:35;;;;;;;1999.90;999.90;;;;;;;10.65;100.00;93806.28;5027691;28;20197;-60
2023/08/07 02:13:01;;;;;;;1999.90;999.90;;;;;;;10.63;100.00;93795.03;5027580;28;20200;-60
2023/08/07 02:15:26;;;;;;;1999.90;999.90;;;;;;;10.64;100.00;93776.72;5027624;28;20206;-61
2023/08/07 02:17:51;;;;;;;1999.90;999.90;;;;;;;10.72;100.00;93777.97;5027422;28;20181;-61
2023/08/07 02:20:17;;;;;;;1999.90;999.90;;;;;;;10.59;100.00;93780.75;5028010;28;20206;-60
2023/08/07 02:22:42;;;;;;;1999.90;999.90;;;;;;;10.62;100.00;93790.03;5027556;28;20204;-60
2023/08/07 02:25:08;;;;;;;1999.90;999.90;;;;;;;10.62;100.00;93779.09;5027602;28;20267;-59
2023/08/07 02:27:33;;;;;;;1999.90;999.90;;;;;;;10.61;100.00;93777.59;5027637;28;20213;-61
2023/08/07 02:29:58;;;;;;;1999.90;999.90;;;;;;;10.63;100.00;93775.19;5027257;28;20225;-60
2023/08/07 02:32:24;;;;;;;1999.90;999.90;;;;;;;10.62;100.00;93763.50;5027276;28;20216;-60
2023/08/07 02:34:49;;;;;;;1999.90;999.90;;;;;;;10.62;100.00;93773.66;5027498;28;20210;-60
2023/08/07 02:37:15;;;;;;;1999.90;999.90;;;;;;;10.59;100.00;93767.09;5027019;28;20200;-59
2023/08/07 02:39:41;;;;;;;1999.90;999.90;;;;;;;10.57;100.00;93779.69;5027225;28;20265;-60
2023/08/07 02:42:06;;;;;;;1999.90;999.90;;;;;;;10.61;100.00;93778.34;5027180;28;20205;-60
2023/08/07 02:44:32;;;;;;;1999.90;999.90;;;;;;;10.61;100.00;93788.50;5027156;28;20218;-60
2023/08/07 02:46:57;;;;;;;1999.90;999.90;;;;;;;10.63;100.00;93786.09;5026805;28;20275;-61
2023/08/07 02:49:22;;;;;;;1999.90;999.90;;;;;;;10.65;100.00;93778.22;5026773;28;20254;-62
2023/08/07 02:51:48;;;;;;;1999.90;999.90;;;;;;;10.67;100.00;93784.00;5027022;28;20204;-60
2023/08/07 02:54:13;;;;;;;1999.90;999.90;;;;;;;10.63;100.00;93786.84;5026868;28;20218;-60
2023/08/07 02:56:38;;;;;;;1999.90;999.90;;;;;;;10.67;100.00;93781.28;5026602;28;20271;-60
2023/08/07 02:59:05;;;;;;;1999.90;999.90;;;;;;;10.67;100.00;93784.00;5026609;28;20205;-60
2023/08/07 03:01:30;;;;;;;1999.90;999.90;;;;;;;10.74;100.00;93786.50;5026624;28;20259;-60
2023/08/07 03:03:56;;;;;;;1999.90;999.90;;;;;;;10.76;100.00;93789.53;5027014;28;20233;-60
2023/08/07 03:06:21;;;;;;;1999.90;999.90;;;;;;;10.75;100.00;93798.94;5026664;28;20200;-60
2023/08/07 03:08:46;;;;;;;1999.90;999.90;;;;;;;10.74;100.00;93808.34;5026553;28;20216;-60
2023/08/07 03:11:11;;;;;;;1999.90;999.90;;;;;;;10.76;100.00;93800.47;5026321;28;20203;-60
2023/08/07 03:13:37;;;;;;;1999.90;999.90;;;;;;;10.80;100.00;93817.47;5026544;28;20191;-60
2023/08/07 03:16:07;;;;;;;1999.90;999.90;;;;;;;10.81;100.00;93813.56;5026803;28;20234;-60
2023/08/07 03:18:33;;;;;;;1999.90;999.90;;;;;;;10.81;100.00;93825.22;5026138;28;20205;-61
2023/08/07 03:20:59;;;;;;;1999.90;999.90;;;;;;;10.79;100.00;93835.06;5026338;28;20195;-60
2023/08/07 03:23:25;;;;;;;1999.90;999.90;;;;;;;10.85;100.00;93838.78;5026292;28;20192;-61
2023/08/07 03:25:51;;;;;;;1999.90;999.90;;;;;;;10.84;100.00;93850.88;5026495;28;20201;-60
2023/08/07 03:28:17;;;;;;;1999.90;999.90;;;;;;;10.92;100.00;93852.94;5026239;28;20251;-60
2023/08/07 03:30:44;;;;;;;1999.90;999.90;;;;;;;10.95;100.00;93878.59;5026191;28;20207;-60
2023/08/07 03:33:10;;;;;;;1999.90;999.90;;;;;;;10.93;100.00;93891.94;5026092;28;20208;-60
2023/08/07 03:35:35;;;;;;;1999.90;999.90;;;;;;;10.93;100.00;93925.47;5026001;28;20204;-60
2023/08/07 03:38:00;;;;;;;1999.90;999.90;;;;;;;10.97;100.00;93953.44;5026160;28;20311;-60
2023/08/07 03:40:26;;;;;;;1999.90;999.90;;;;;;;10.99;100.00;94000.19;5025990;28;20207;-60
2023/08/07 03:42:51;;;;;;;1999.90;999.90;;;;;;;11.01;100.00;94041.50;5026034;28;20203;-60
2023/08/07 03:45:16;;;;;;;1999.90;999.90;;;;;;;11.05;100.00;94090.53;5026028;28;20239;-60
2023/08/07 03:47:41;;;;;;;1999.90;999.90;;;;;;;11.00;100.00;94134.81;5025962;28;20268;-60
2023/08/07 03:50:07;;;;;;;1999.90;999.90;;;;;;;10.97;100.00;94171.97;5025457;28;20266;-61
2023/08/07 03:52:32;;;;;;;1999.90;999.90;;;;;;;11.03;100.00;94243.22;5026162;28;20217;-60
2023/08/07 03:54:58;;;;;;;1999.90;999.90;;;;;;;11.02;100.00;94277.94;5025970;28;20260;-60
2023/08/07 03:57:23;;;;;;;1999.90;999.90;;;;;;;11.07;100.00;94336.75;5025418;28;20210;-56
2023/08/07 03:59:48;;;;;;;1999.90;999.90;;;;;;;11.06;100.00;94387.09;5025730;28;20200;-63
2023/08/07 04:02:14;;;;;;;1999.90;999.90;;;;;;;11.06;100.00;94436.28;5026002;28;20208;-62
2023/08/07 04:04:39;;;;;;;1999.90;999.90;;;;;;;11.09;100.00;94462.75;5025292;28;20205;-65
2023/08/07 04:07:05;;;;;;;1999.90;999.90;;;;;;;11.15;100.00;94515.69;5025025;28;20196;-59
2023/08/07 04:09:31;;;;;;;1999.90;999.90;;;;;;;11.15;100.00;94537.56;5025381;28;20283;-61
2023/08/07 04:11:56;;;;;;;1999.90;999.90;;;;;;;11.17;100.00;94565.22;5025460;28;20195;-61
2023/08/07 04:14:22;;;;;;;1999.90;999.90;;;;;;;11.10;100.00;94590.75;5025350;28;20238;-61
2023/08/07 04:16:47;;;;;;;1999.90;999.90;;;;;;;11.15;100.00;94605.88;5025423;28;20328;-61
2023/08/07 04:19:12;;;;;;;1999.90;999.90;;;;;;;11.17;100.00;94639.00;5025278;28;20204;-61
2023/08/07 04:21:38;;;;;;;1999.90;999.90;;;;;;;11.26;100.00;94686.41;5024978;28;20201;-61
2023/08/07 04:24:10;;;;;;;1999.90;999.90;;;;;;;11.22;100.00;94712.28;5025131;28;20220;-60
2023/08/07 04:26:37;;;;;;;1999.90;999.90;;;;;;;11.26;100.00;94719.19;5025307;28;20208;-60
2023/08/07 04:29:03;;;;;;;1999.90;999.90;;;;;;;11.21;100.00;94738.06;5025113;28;20281;-60
2023/08/07 04:31:30;;;;;;;1999.90;999.90;;;;;;;11.24;100.00;94742.69;5025314;28;20201;-61
2023/08/07 04:33:56;;;;;;;1999.90;999.90;;;;;;;11.29;100.00;94761.34;5025032;28;20265;-61
2023/08/07 04:36:21;;;;;;;1999.90;999.90;;;;;;;11.33;100.00;94789.38;5024805;28;20223;-59
2023/08/07 04:38:47;;;;;;;1999.90;999.90;;;;;;;11.30;100.00;94817.53;5025001;28;20210;-59
2023/08/07 04:41:12;;;;;;;1999.90;999.90;;;;;;;11.30;100.00;94820.28;5025232;28;20198;-59
2023/08/07 04:43:37;;;;;;;1999.90;999.90;;;;;;;11.31;100.00;94840.94;5024759;28;20205;-60
2023/08/07 04:46:02;;;;;;;1999.90;999.90;;;;;;;11.33;100.00;94849.50;5025154;28;20265;-59
2023/08/07 04:48:28;;;;;;;1999.90;999.90;;;;;;;11.38;100.00;94868.13;5024994;28;20236;-60
2023/08/07 04:50:53;;;;;;;1999.90;999.90;;;;;;;11.36;100.00;94892.41;5024904;28;20218;-59
2023/08/07 04:53:19;;;;;;;1999.90;999.90;;;;;;;11.38;100.00;94884.53;5024827;28;20212;-59
2023/08/07 04:55:44;;;;;;;1999.90;999.90;;;;;;;11.41;100.00;94906.34;5024964;28;20189;-59
2023/08/07 04:58:10;;;;;;;1999.90;999.90;;;;;;;11.44;100.00;94910.97;5024763;28;20201;-59
2023/08/07 05:00:36;;;;;;;1999.90;999.90;;;;;;;11.43;100.00;94935.97;5024479;28;20196;-59
2023/08/07 05:03:01;;;;;;;1999.90;999.90;;;;;;;11.49;100.00;94934.31;5024485;28;20208;-59
2023/08/07 05:05:27;;;;;;;1999.90;999.90;;;;;;;11.43;100.00;94941.44;5024417;28;20200;-60
2023/08/07 05:07:54;;;;;;;1999.90;999.90;;;;;;;11.46;100.00;94932.41;5024302;28;20198;-59
2023/08/07 05:10:19;;;;;;;1999.90;999.90;;;;;;;11.52;100.00;94949.88;5024268;28;20225;-60
2023/08/07 05:12:44;;;;;;;1999.90;999.90;;;;;;;11.58;100.00;94959.16;5024498;28;20202;-59
2023/08/07 05:15:10;;;;;;;1999.90;999.90;;;;;;;11.63;100.00;94980.56;5024060;28;20193;-59
2023/08/07 05:17:35;;;;;;;1999.90;999.90;;;;;;;11.63;100.00;94983.31;5023520;28;20193;-59
2023/08/07 05:20:00;;;;;;;1999.90;999.90;;;;;;;11.66;100.00;94993.41;5023741;28;20285;-59
2023/08/07 05:22:26;;;;;;;1999.90;999.90;;;;;;;11.69;100.00;95014.47;5024561;28;20181;-59
2023/08/07 05:24:51;;;;;;;1999.90;999.90;;;;;;;11.68;100.00;95018.38;5024448;28;20198;-59
2023/08/07 05:27:16;;;;;;;1999.90;999.90;;;;;;;11.73;100.00;95028.84;5024101;28;20200;-59
2023/08/07 05:29:45;;;;;;;1999.90;999.90;;;;;;;11.68;100.00;95032.81;5023757;28;20210;-59
2023/08/07 05:32:14;;;;;;;1999.90;999.90;;;;;;;11.82;100.00;95046.25;5024044;28;20198;-59
2023/08/07 05:34:40;;;;;;;1999.90;999.90;;;;;;;11.81;100.00;95071.28;5024554;28;20209;-59
2023/08/07 05:37:06;;;;;;;1999.90;999.90;;;;;;;11.85;100.00;95063.78;5023999;28;20221;-59
2023/08/07 05:39:32;;;;;;;1999.90;999.90;;;;;;;11.88;100.00;95065.69;5023949;28;20206;-58
2023/08/07 05:41:57;;;;;;;1999.90;999.90;;;;;;;11.90;100.00;95074.22;5023871;28;20202;-59
2023/08/07 05:44:26;;;;;;;1999.90;999.90;;;;;;;11.93;100.00;95093.34;5023761;28;20206;-58
2023/08/07 05:46:51;;;;;;;1999.90;999.90;;;;;;;12.00;100.00;95095.94;5024286;28;20277;-59
2023/08/07 05:49:17;;;;;;;1999.90;999.90;;;;;;;12.05;100.00;95105.63;5023842;28;20229;-59
2023/08/07 05:51:42;;;;;;;1999.90;999.90;;;;;;;12.07;100.00;95114.97;5023718;28;20193;-59
2023/08/07 05:54:08;;;;;;;1999.90;999.90;;;;;;;12.10;100.00;95127.03;5024172;28;20203;-59
2023/08/07 05:56:33;;;;;;;1999.90;999.90;;;;;;;12.12;100.00;95130.13;5023841;28;20197;-59
2023/08/07 05:58:59;;;;;;;1999.90;999.90;;;;;;;12.14;100.00;95133.22;5023671;28;20282;-60
2023/08/07 06:01:30;;;;;;;1999.90;999.90;;;;;;;12.18;100.00;95133.94;5023690;28;20237;-58
2023/08/07 06:03:55;;;;;;;1999.90;999.90;;;;;;;12.26;100.00;95140.81;5024087;28;20270;-59
2023/08/07 06:06:21;;;;;;;1999.90;999.90;;;;;;;12.33;100.00;95143.41;5023787;28;20193;-59
2023/08/07 06:08:46;;;;;;;1999.90;999.90;;;;;;;12.37;100.00;95141.38;5023498;28;20228;-59
2023/08/07 06:11:11;;;;;;;1999.90;999.90;;;;;;;12.30;100.00;95136.03;5023725;28;20198;-59
2023/08/07 06:13:37;;;;;;;1999.90;999.90;;;;;;;12.38;100.00;95146.44;5023580;28;20223;-59
2023/08/07 06:16:02;;;;;;;1999.90;999.90;;;;;;;12.42;100.00;95157.34;5023970;28;20202;-59
2023/08/07 06:18:28;;;;;;;1999.90;999.90;;;;;;;12.57;100.00;95161.34;5023660;28;20222;-59
2023/08/07 06:20:53;;;;;;;1999.90;999.90;;;;;;;12.63;100.00;95170.59;5023584;28;20211;-59
2023/08/07 06:23:18;;;;;;;1999.90;999.90;;;;;;;12.73;100.00;95169.63;5023972;28;20307;-59
2023/08/07 06:25:44;;;;;;;1999.90;999.90;;;;;;;12.70;100.00;95164.97;5023964;28;20206;-59
2023/08/07 06:28:09;;;;;;;1999.90;999.90;;;;;;;12.88;100.00;95168.94;5023346;28;20199;-59
2023/08/07 06:30:34;;;;;;;1999.90;999.90;;;;;;;12.86;100.00;95163.06;5026167;28;20207;-59
2023/08/07 06:33:00;;;;;;;1999.90;999.90;;;;;;;13.02;100.00;95176.09;5027482;28;20203;-60
2023/08/07 06:35:25;;;;;;;1999.90;999.90;;;;;;;13.06;100.00;95193.25;5027276;28;20203;-59
2023/08/07 06:37:50;;;;;;;1999.90;999.90;;;;;;;13.29;100.00;95202.13;5026916;28;20202;-59
2023/08/07 06:40:16;;;;;;;1999.90;999.90;;;;;;;13.38;100.00;95198.81;5027506;28;20207;-59
2023/08/07 06:42:41;;;;;;;1999.90;999.90;;;;;;;13.56;100.00;95209.38;5026916;28;20194;-59
2023/08/07 06:45:07;;;;;;;1999.90;999.90;;;;;;;13.71;100.00;95203.16;5026929;28;20203;-59
2023/08/07 06:47:32;;;;;;;1999.90;999.90;;;;;;;14.02;100.00;95209.84;5026794;28;20202;-59
2023/08/07 06:49:57;;;;;;;1999.90;999.90;;;;;;;14.37;100.00;95211.75;5026951;28;20225;-59
2023/08/07 06:52:23;;;;;;;1999.90;999.90;;;;;;;14.59;100.00;95220.19;5026552;28;20233;-59
2023/08/07 06:54:48;;;;;;;1999.90;999.90;;;;;;;15.82;100.00;95206.44;5026560;28;20171;-58
2023/08/07 06:57:14;;;;;;;1999.90;999.90;;;;;;;16.60;100.00;95210.19;5026651;28;20202;-58
2023/08/07 06:59:39;;;;;;;1999.90;999.90;;;;;;;16.97;100.00;95231.34;5026939;28;20209;-59
2023/08/07 07:02:05;;;;;;;1999.90;999.90;;;;;;;16.86;100.00;95228.19;5027064;28;20231;-59
2023/08/07 07:04:31;;;;;;;1999.90;999.90;;;;;;;16.95;100.00;95231.00;5026445;28;20227;-59
2023/08/07 07:06:56;;;;;;;1999.90;999.90;;;;;;;16.66;100.00;95233.19;5026366;28;20217;-58
2023/08/07 07:09:22;;;;;;;1999.90;999.90;;;;;;;16.57;100.00;95227.63;5026342;28;20211;-58
2023/08/07 07:11:47;;;;;;;1999.90;999.90;;;;;;;17.43;100.00;95224.91;5026346;28;20245;-59
2023/08/07 07:14:12;;;;;;;1999.90;999.90;;;;;;;17.49;100.00;95237.72;5026241;28;20195;-58
2023/08/07 07:16:38;;;;;;;1999.90;999.90;;;;;;;16.75;100.00;95234.06;5026520;28;20210;-59
2023/08/07 07:19:04;;;;;;;1999.90;999.90;;;;;;;16.89;100.00;95249.38;5026413;28;20195;-58
2023/08/07 07:21:29;;;;;;;1999.90;999.90;;;;;;;17.05;100.00;95258.22;5026617;28;20195;-59
2023/08/07 07:23:54;;;;;;;1999.90;999.90;;;;;;;17.15;100.00;95251.53;5026062;28;20195;-59
2023/08/07 07:26:20;;;;;;;1999.90;999.90;;;;;;;17.16;100.00;95257.84;5026764;28;20262;-59
2023/08/07 07:28:45;;;;;;;1999.90;999.90;;;;;;;17.24;100.00;95253.59;5025764;28;20219;-58
2023/08/07 07:31:11;;;;;;;1999.90;999.90;;;;;;;17.51;100.00;95259.31;5026357;28;20266;-59
2023/08/07 07:33:39;;;;;;;1999.90;999.90;;;;;;;17.29;100.00;95261.31;5026274;28;20203;-59
2023/08/07 07:36:05;;;;;;;1999.90;999.90;;;;;;;18.20;100.00;95269.66;5025801;28;20251;-59
2023/08/07 07:38:30;;;;;;;1999.90;999.90;;;;;;;18.85;100.00;95277.69;5026113;28;20238;-59
2023/08/07 07:40:56;;;;;;;1999.90;999.90;;;;;;;18.54;100.00;95271.50;5025126;28;20199;-59
2023/08/07 07:43:22;;;;;;;1999.90;999.90;;;;;;;18.89;100.00;95270.00;5025773;28;20206;-59
2023/08/07 07:45:48;;;;;;;1999.90;999.90;;;;;;;17.84;100.00;95277.78;5025569;28;20195;-58
2023/08/07 07:48:13;;;;;;;1999.90;999.90;;;;;;;17.09;100.00;95274.66;5025730;28;20202;-58
2023/08/07 07:50:38;;;;;;;1999.90;999.90;;;;;;;17.05;100.00;95285.81;5025585;28;20187;-58
2023/08/07 07:53:04;;;;;;;1999.90;999.90;;;;;;;17.07;100.00;95277.06;5025872;28;20202;-59
2023/08/07 07:55:29;;;;;;;1999.90;999.90;;;;;;;16.51;100.00;95284.53;5026131;28;20179;-59
2023/08/07 07:57:55;;;;;;;1999.90;999.90;;;;;;;16.12;100.00;95296.75;5025983;28;20195;-58
2023/08/07 08:00:22;;;;;;;1999.90;999.90;;;;;;;16.23;100.00;95302.72;5025819;28;20187;-59
2023/08/07 08:02:47;;;;;;;1999.90;999.90;;;;;;;16.14;100.00;95284.09;5025290;28;20241;-59
2023/08/07 08:05:15;;;;;;;1999.90;999.90;;;;;;;15.91;100.00;95298.19;5025840;28;20187;-58
2023/08/07 08:07:40;;;;;;;1999.90;999.90;;;;;;;15.86;100.00;95301.50;5025235;28;20278;-59
2023/08/07 08:10:07;;;;;;;1999.90;999.90;;;;;;;15.52;100.00;95295.81;5025303;28;20206;-59
2023/08/07 08:12:32;;;;;;;1999.90;999.90;;;;;;;15.60;100.00;95305.44;5025201;28;20198;-59
2023/08/07 08:14:58;;;;;;;1999.90;999.90;;;;;;;15.76;100.00;95323.84;5025102;28;20183;-58
2023/08/07 08:17:23;;;;;;;1999.90;999.90;;;;;;;15.47;100.00;95301.88;5025399;28;20191;-59
2023/08/07 08:19:49;;;;;;;1999.90;999.90;;;;;;;15.47;100.00;95312.09;5025030;28;20202;-58
2023/08/07 08:22:14;;;;;;;1999.90;999.90;;;;;;;15.38;100.00;95321.00;5025263;28;20190;-58
2023/08/07 08:24:39;;;;;;;1999.90;999.90;;;;;;;15.35;100.00;95319.13;5025133;28;20183;-59
2023/08/07 08:27:05;;;;;;;1999.90;999.90;;;;;;;15.31;100.00;95325.88;5024753;28;20167;-59
2023/08/07 08:29:30;;;;;;;1999.90;999.90;;;;;;;15.51;100.00;95310.78;5025178;28;20290;-58
2023/08/07 08:31:56;;;;;;;1999.90;999.90;;;;;;;15.54;100.00;95318.19;5025277;28;20210;-58
2023/08/07 08:34:21;;;;;;;1999.90;999.90;;;;;;;15.34;100.00;95314.78;5025123;28;20202;-59
2023/08/07 08:36:47;;;;;;;1999.90;999.90;;;;;;;15.32;100.00;95322.72;5024814;28;20206;-58
2023/08/07 08:39:13;;;;;;;1999.90;999.90;;;;;;;15.37;100.00;95324.94;5024824;28;20225;-58
2023/08/07 08:41:45;;;;;;;1999.90;999.90;;;;;;;15.37;100.00;95319.44;5024975;28;20206;-58
2023/08/07 08:44:12;;;;;;;1999.90;999.90;;;;;;;15.32;100.00;95311.69;5024885;28;20269;-59
2023/08/07 08:46:40;;;;;;;1999.90;999.90;;;;;;;15.48;100.00;95339.19;5024968;28;20270;-59
2023/08/07 08:49:07;;;;;;;1999.90;999.90;;;;;;;15.44;100.00;95349.53;5024469;28;20238;-59
2023/08/07 08:51:33;;;;;;;1999.90;999.90;;;;;;;15.38;100.00;95348.53;5024446;28;20218;-59
2023/08/07 08:53:59;;;;;;;1999.90;999.90;;;;;;;15.39;100.00;95341.81;5024258;28;20205;-60
2023/08/07 08:56:25;;;;;;;1999.90;999.90;;;;;;;15.58;100.00;95351.88;5024862;28;20211;-60
2023/08/07 08:58:51;;;;;;;1999.90;999.90;;;;;;;15.73;100.00;95353.03;5024850;28;20206;-59
2023/08/07 09:01:18;;;;;;;1999.90;999.90;;;;;;;15.70;100.00;95358.66;5024728;28;20230;-59
2023/08/07 09:03:45;;;;;;;1999.90;999.90;;;;;;;15.70;100.00;95348.38;5024841;28;20199;-59
2023/08/07 09:06:12;;;;;;;1999.90;999.90;;;;;;;15.70;100.00;95347.63;5024125;28;20195;-59
2023/08/07 09:08:42;;;;;;;1999.90;999.90;;;;;;;15.87;100.00;95363.63;5024410;28;20217;-59
2023/08/07 09:11:08;;;;;;;1999.90;999.90;;;;;;;15.79;100.00;95351.28;5024005;28;20218;-58
2023/08/07 09:13:40;;;;;;;1999.90;999.90;;;;;;;15.67;100.00;95359.50;5024357;28;20202;-58
2023/08/07 09:16:08;;;;;;;1999.90;999.90;;;;;;;15.78;100.00;95363.50;5024661;28;20206;-59
2023/08/07 09:18:34;;;;;;;1999.90;999.90;;;;;;;15.89;100.00;95360.44;5024057;28;20198;-60
2023/08/07 09:21:00;;;;;;;1999.90;999.90;;;;;;;16.06;100.00;95365.41;5023971;28;20213;-57
2023/08/07 09:23:25;;;;;;;1999.90;999.90;;;;;;;16.02;100.00;95361.22;5024551;28;20215;-59
2023/08/07 09:26:01;;;;;;;1999.90;999.90;;;;;;;16.11;100.00;95362.13;5024433;28;20266;-59
2023/08/07 09:28:28;;;;;;;1999.90;999.90;;;;;;;16.08;100.00;95363.00;5023867;28;20202;-60
2023/08/07 09:30:54;;;;;;;1999.90;999.90;;;;;;;16.00;100.00;95361.66;5023843;28;20199;-59
2023/08/07 09:33:26;;;;;;;1999.90;999.90;;;;;;;15.95;100.00;95358.66;5024033;28;20209;-59
2023/08/07 09:35:52;;;;;;;1999.90;999.90;;;;;;;15.85;100.00;95366.03;5023783;28;20202;-59
2023/08/07 09:38:17;;;;;;;1999.90;999.90;;;;;;;15.97;100.00;95359.03;5024022;28;20195;-59
2023/08/07 09:40:43;;;;;;;1999.90;999.90;;;;;;;15.87;100.00;95358.13;5024024;28;20262;-59
2023/08/07 09:43:08;;;;;;;1999.90;999.90;;;;;;;15.81;100.00;95365.38;5024370;28;20221;-59
2023/08/07 09:45:36;;;;;;;1999.90;999.90;;;;;;;15.99;100.00;95360.13;5023812;28;20202;-59
2023/08/07 09:48:02;;;;;;;1999.90;999.90;;;;;;;16.40;100.00;95351.75;5023734;28;20179;-59
2023/08/07 09:50:29;;;;;;;1999.90;999.90;;;;;;;16.53;100.00;95364.81;5023888;28;20226;-59
2023/08/07 09:52:55;;;;;;;1999.90;999.90;;;;;;;16.80;100.00;95362.34;5024171;28;20278;-59
2023/08/07 09:55:22;;;;;;;1999.90;999.90;;;;;;;17.23;100.00;95362.47;5024001;28;20199;-60
2023/08/07 09:57:48;;;;;;;1999.90;999.90;;;;;;;17.47;100.00;95347.84;5023701;28;20199;-60
2023/08/07 10:00:15;;;;;;;1999.90;999.90;;;;;;;17.31;100.00;95341.69;5023740;28;20265;-60
2023/08/07 10:02:44;;;;;;;1999.90;999.90;;;;;;;17.28;100.00;95350.88;5023583;28;20194;-60
2023/08/07 10:05:10;;;;;;;1999.90;999.90;;;;;;;17.11;100.00;95358.53;5025331;28;20198;-59
2023/08/07 10:07:38;;;;;;;1999.90;999.90;;;;;;;17.24;100.00;95344.69;5027724;28;20245;-60
2023/08/07 10:10:04;;;;;;;1999.90;999.90;;;;;;;17.71;100.00;95353.69;5027486;28;20253;-60
2023/08/07 10:12:30;;;;;;;1999.90;999.90;;;;;;;18.08;100.00;95347.16;5027875;28;20191;-60
2023/08/07 10:14:56;;;;;;;1999.90;999.90;;;;;;;18.17;100.00;95353.50;5027360;28;20205;-60
2023/08/07 10:17:22;;;;;;;1999.90;999.90;;;;;;;18.90;100.00;95351.81;5027930;28;20167;-60
2023/08/07 10:19:48;;;;;;;1999.90;999.90;;;;;;;19.46;100.00;95352.25;5027480;28;20203;-60
2023/08/07 10:22:15;;;;;;;1999.90;999.90;;;;;;;19.74;100.00;95342.66;5027454;28;20210;-60
2023/08/07 10:24:44;;;;;;;1999.90;999.90;;;;;;;19.73;100.00;95343.16;5027638;28;20233;-60
2023/08/07 10:27:11;;;;;;;1999.90;999.90;;;;;;;19.85;100.00;95345.75;5027206;28;20198;-60
2023/08/07 10:29:38;;;;;;;1999.90;999.90;;;;;;;19.73;100.00;95338.38;5027102;28;20215;-60
2023/08/07 10:32:05;;;;;;;1999.90;999.90;;;;;;;20.38;100.00;95344.13;5027167;28;20202;-60
2023/08/07 10:34:34;;;;;;;1999.90;999.90;;;;;;;20.95;100.00;95331.84;5027244;28;20270;-61
2023/08/07 10:36:59;;;;;;;1999.90;999.90;;;;;;;21.38;100.00;95325.69;5027150;28;20191;-60
2023/08/07 10:39:24;;;;;;;1999.90;999.90;;;;;;;22.47;100.00;95333.75;5027288;28;20195;-60
2023/08/07 10:41:54;;;;;;;1999.90;999.90;;;;;;;23.02;100.00;95325.53;5027075;28;20202;-59
2023/08/07 10:44:22;;;;;;;1999.90;999.90;;;;;;;22.26;100.00;95313.44;5026770;28;20251;-60